Currently 60°F in French Valley, California, USA
60°F
63°F / 60°F
calm
0.00"
Thursday, September 3, 2026 2:41 AM PDT

French Valley, California Weather Summary
Last 36 Hours

Temperature Winds Hourly Humidity Dewpoint
Time Report Norm Report Norm Max Gusts Precip. Rpt. Norm Rpt. Norm Pressure
1Thu 02:41 AM  59.7°F  70°F  calm  1 mph  none  0.00"  100%  75%  60°F  61°F  29.99"
3Thu 02:40 AM  59.7°F  70°F  calm  1 mph  none  ----  100%  75%  60°F  61°F  29.99"
Thu 02:00 AM  60.6°F  70°F  calm  1 mph  none  0.00"  100%  74%  61°F  61°F  29.99"
Thu 01:00 AM  61.5°F  71°F  calm  1 mph  none  0.00"  99%  73%  61°F  62°F  30.00"
2Thu 12:00 AM  62.9°F  72°F  calm  1 mph  7 mph  0.00"  98%  72%  62°F  62°F  30.00"
Wed 11:00 PM  63.6°F  73°F  4 mph S  1 mph  7 mph  0.00"  98%  69%  63°F  62°F  30.00"
Wed 10:00 PM  65.2°F  75°F  2 mph SE  1 mph  7 mph  0.00"  87%  67%  61°F  62°F  30.00"
Wed 09:00 PM  67.5°F  76°F  1 mph SE  2 mph  8 mph  0.00"  75%  64%  59°F  63°F  29.98"
Wed 08:00 PM  70.4°F  78°F  5 mph S  3 mph  12 mph  0.00"  72%  59%  61°F  62°F  29.96"
Wed 07:00 PM  73.8°F  82°F  9 mph S  4 mph  19 mph  0.00"  58%  50%  58°F  62°F  29.96"
Wed 06:00 PM  77.8°F  86°F  9 mph SW  5 mph  17 mph  0.00"  43%  43%  53°F  61°F  29.94"
Wed 05:00 PM  81.1°F  89°F  8 mph S  6 mph  16 mph  0.00"  43%  38%  56°F  60°F  29.95"
Wed 04:00 PM  86.1°F  91°F  9 mph SW  6 mph  16 mph  0.00"  29%  35%  49°F  59°F  29.95"
Wed 03:00 PM  85.7°F  93°F  7 mph S  6 mph  18 mph  0.00"  29%  33%  49°F  59°F  29.97"
Wed 02:00 PM  84.5°F  93°F  10 mph SW  5 mph  16 mph  0.00"  35%  32%  53°F  58°F  29.99"
Wed 01:00 PM  82.7°F  92°F  7 mph SW  4 mph  16 mph  0.00"  36%  32%  52°F  58°F  30.02"
Wed 12:00 PM  81.5°F  90°F  8 mph SW  3 mph  14 mph  0.00"  38%  35%  53°F  58°F  30.03"
Wed 11:00 AM  77.8°F  87°F  5 mph SW  2 mph  13 mph  0.00"  49%  41%  57°F  60°F  30.06"
Wed 10:00 AM  73.2°F  82°F  3 mph W  2 mph  7 mph  0.00"  60%  51%  58°F  61°F  30.05"
Wed 09:00 AM  68.4°F  77°F  4 mph S  1 mph  8 mph  0.00"  75%  62%  60°F  62°F  30.04"
Wed 08:00 AM  59.3°F  72°F  calm  1 mph  4 mph  0.00"  100%  71%  59°F  62°F  30.05"
Wed 07:00 AM  57.4°F  68°F  1 mph NW  calm  3 mph  0.00"  100%  76%  57°F  60°F  30.03"
Wed 06:00 AM  56.8°F  68°F  calm  1 mph  4 mph  0.00"  100%  77%  57°F  60°F  30.02"
Wed 05:00 AM  57.3°F  68°F  2 mph NE  1 mph  6 mph  0.00"  100%  76%  57°F  60°F  30.03"
Wed 04:00 AM  60.3°F  69°F  calm  calm  none  0.00"  100%  75%  60°F  60°F  30.03"
Wed 03:00 AM  61.8°F  70°F  calm  calm  none  0.00"  100%  75%  62°F  61°F  30.03"
Wed 02:00 AM  62.9°F  70°F  calm  1 mph  none  0.00"  100%  74%  63°F  61°F  30.03"
Wed 01:00 AM  63.3°F  71°F  calm  1 mph  5 mph  0.00"  97%  73%  62°F  62°F  30.03"
Wed 12:00 AM  65.2°F  72°F  2 mph S  1 mph  4 mph  0.00"  85%  72%  60°F  62°F  30.01"
Tue 11:00 PM  66.9°F  73°F  calm  1 mph  5 mph  0.00"  77%  69%  59°F  62°F  30.00"
Tue 10:00 PM  68.5°F  75°F  calm  1 mph  5 mph  0.00"  68%  67%  57°F  62°F  29.99"
Tue 09:00 PM  70.2°F  76°F  calm  2 mph  8 mph  0.00"  65%  64%  58°F  63°F  29.97"
Tue 08:00 PM  73.7°F  79°F  6 mph S  2 mph  10 mph  0.00"  59%  58%  58°F  62°F  29.94"
Tue 07:00 PM  78.7°F  82°F  4 mph S  4 mph  20 mph  0.00"  44%  50%  54°F  61°F  29.93"
Tue 06:00 PM  82.0°F  86°F  10 mph S  5 mph  16 mph  0.00"  38%  42%  53°F  60°F  29.93"
Tue 05:00 PM  84.5°F  89°F  9 mph SW  6 mph  18 mph  0.00"  35%  37%  53°F  59°F  29.93"
Tue 04:00 PM  86.4°F  91°F  12 mph S  6 mph  16 mph  0.00"  31%  35%  51°F  59°F  29.94"
Tue 03:00 PM  87.7°F  93°F  8 mph S  6 mph  19 mph  0.00"  34%  33%  55°F  58°F  29.97"

  1. Current weather data. No green row appears if the current weather data is also the high or low for the current day.
  2. High temperature for the current day.
  3. Low temperature for the current day.

The French Valley, California weather pages are a service of WeatherCurrents. French Valley is located in southwestern Riverside County, California, north of Temecula, east of Murrieta, and south of Winchester. French Valley is bordered by Lake Skinner.
Copyright ©Thu Sep 03 02:42:24 PDT 2026  WeatherCurrents. All rights reserved. - Submit questions and comments - Privacy Policy

This page automatically refreshes every 10 minutes.